sensor_id;sensor_type;location;lat;lon;timestamp;pressure;altitude;pressure_sealevel;temperature;humidity
67434;BME280;54305;47.950;6.572;2023-01-15T00:01:39;93455.66;;;7.31;100.00
67434;BME280;54305;47.950;6.572;2023-01-15T00:04:05;93450.47;;;7.31;100.00
67434;BME280;54305;47.950;6.572;2023-01-15T00:06:31;93446.28;;;7.30;100.00
67434;BME280;54305;47.950;6.572;2023-01-15T00:08:59;93435.59;;;7.33;100.00
67434;BME280;54305;47.950;6.572;2023-01-15T00:11:24;93445.63;;;7.36;100.00
67434;BME280;54305;47.950;6.572;2023-01-15T00:13:49;93441.25;;;7.36;100.00
67434;BME280;54305;47.950;6.572;2023-01-15T00:16:16;93426.19;;;7.40;100.00
67434;BME280;54305;47.950;6.572;2023-01-15T00:18:42;93439.31;;;7.38;100.00
67434;BME280;54305;47.950;6.572;2023-01-15T00:21:09;93474.78;;;7.38;100.00
67434;BME280;54305;47.950;6.572;2023-01-15T00:23:35;93422.31;;;7.36;100.00
67434;BME280;54305;47.950;6.572;2023-01-15T00:26:33;93417.78;;;7.38;100.00
67434;BME280;54305;47.950;6.572;2023-01-15T00:29:17;93433.16;;;7.47;100.00
67434;BME280;54305;47.950;6.572;2023-01-15T00:31:43;93429.09;;;7.45;100.00
67434;BME280;54305;47.950;6.572;2023-01-15T00:34:09;93414.22;;;7.47;100.00
67434;BME280;54305;47.950;6.572;2023-01-15T00:36:34;93391.22;;;7.44;100.00
67434;BME280;54305;47.950;6.572;2023-01-15T00:39:02;93413.56;;;7.45;100.00
67434;BME280;54305;47.950;6.572;2023-01-15T00:41:28;93435.72;;;7.55;100.00
67434;BME280;54305;47.950;6.572;2023-01-15T00:43:53;93405.78;;;7.53;100.00
67434;BME280;54305;47.950;6.572;2023-01-15T00:46:19;93418.22;;;7.57;100.00
67434;BME280;54305;47.950;6.572;2023-01-15T00:48:44;93408.69;;;7.58;100.00
67434;BME280;54305;47.950;6.572;2023-01-15T00:51:09;93396.72;;;7.57;100.00
67434;BME280;54305;47.950;6.572;2023-01-15T00:53:35;93406.72;;;7.60;100.00
67434;BME280;54305;47.950;6.572;2023-01-15T00:56:00;93396.72;;;7.57;100.00
67434;BME280;54305;47.950;6.572;2023-01-15T00:58:25;93384.91;;;7.54;100.00
67434;BME280;54305;47.950;6.572;2023-01-15T01:00:54;93384.72;;;7.56;100.00
67434;BME280;54305;47.950;6.572;2023-01-15T01:03:20;93399.94;;;7.59;100.00
67434;BME280;54305;47.950;6.572;2023-01-15T01:05:45;93403.81;;;7.63;100.00
67434;BME280;54305;47.950;6.572;2023-01-15T01:08:10;93392.78;;;7.61;100.00
67434;BME280;54305;47.950;6.572;2023-01-15T01:10:35;93388.59;;;7.60;100.00
67434;BME280;54305;47.950;6.572;2023-01-15T01:13:01;93404.78;;;7.62;100.00
67434;BME280;54305;47.950;6.572;2023-01-15T01:15:26;93371.44;;;7.59;100.00
67434;BME280;54305;47.950;6.572;2023-01-15T01:17:51;93360.75;;;7.62;100.00
67434;BME280;54305;47.950;6.572;2023-01-15T01:20:17;93377.38;;;7.67;100.00
67434;BME280;54305;47.950;6.572;2023-01-15T01:22:42;93371.75;;;7.64;100.00
67434;BME280;54305;47.950;6.572;2023-01-15T01:25:08;93368.53;;;7.62;100.00
67434;BME280;54305;47.950;6.572;2023-01-15T01:27:33;93419.69;;;7.60;100.00
67434;BME280;54305;47.950;6.572;2023-01-15T01:29:58;93363.34;;;7.62;100.00
67434;BME280;54305;47.950;6.572;2023-01-15T01:32:24;93382.44;;;7.61;100.00
67434;BME280;54305;47.950;6.572;2023-01-15T01:34:49;93360.91;;;7.60;100.00
67434;BME280;54305;47.950;6.572;2023-01-15T01:37:14;93392.00;;;7.60;100.00
67434;BME280;54305;47.950;6.572;2023-01-15T01:39:39;93372.06;;;7.61;100.00
67434;BME280;54305;47.950;6.572;2023-01-15T01:42:10;93372.41;;;7.58;100.00
67434;BME280;54305;47.950;6.572;2023-01-15T01:47:02;93374.03;;;7.59;100.00
67434;BME280;54305;47.950;6.572;2023-01-15T01:49:29;93380.81;;;7.60;100.00
67434;BME280;54305;47.950;6.572;2023-01-15T01:52:01;93366.88;;;7.61;100.00
67434;BME280;54305;47.950;6.572;2023-01-15T01:54:28;93372.06;;;7.61;100.00
67434;BME280;54305;47.950;6.572;2023-01-15T01:56:55;93358.47;;;7.59;100.00
67434;BME280;54305;47.950;6.572;2023-01-15T01:59:20;93378.22;;;7.60;100.00
67434;BME280;54305;47.950;6.572;2023-01-15T02:01:48;93356.19;;;7.64;100.00
67434;BME280;54305;47.950;6.572;2023-01-15T02:04:13;93351.84;;;7.64;100.00
67434;BME280;54305;47.950;6.572;2023-01-15T02:06:40;93354.75;;;7.61;100.00
67434;BME280;54305;47.950;6.572;2023-01-15T02:09:06;93340.03;;;7.62;100.00
67434;BME280;54305;47.950;6.572;2023-01-15T02:11:32;93363.00;;;7.65;100.00
67434;BME280;54305;47.950;6.572;2023-01-15T02:16:36;93330.63;;;7.61;100.00
67434;BME280;54305;47.950;6.572;2023-01-15T02:19:13;93344.22;;;7.63;100.00
67434;BME280;54305;47.950;6.572;2023-01-15T02:21:47;93350.19;;;7.63;100.00
67434;BME280;54305;47.950;6.572;2023-01-15T02:29:12;93318.63;;;7.68;100.00
67434;BME280;54305;47.950;6.572;2023-01-15T02:31:43;93322.03;;;7.68;100.00
67434;BME280;54305;47.950;6.572;2023-01-15T02:34:13;93310.84;;;7.68;100.00
67434;BME280;54305;47.950;6.572;2023-01-15T02:36:41;93317.63;;;7.69;100.00
67434;BME280;54305;47.950;6.572;2023-01-15T02:39:08;93324.91;;;7.73;100.00
67434;BME280;54305;47.950;6.572;2023-01-15T02:41:36;93324.78;;;7.67;100.00
67434;BME280;54305;47.950;6.572;2023-01-15T02:44:04;93328.81;;;7.69;100.00
67434;BME280;54305;47.950;6.572;2023-01-15T02:46:32;93336.59;;;7.69;100.00
67434;BME280;54305;47.950;6.572;2023-01-15T02:48:58;93326.06;;;7.71;100.00
67434;BME280;54305;47.950;6.572;2023-01-15T02:51:26;93320.06;;;7.70;100.00
67434;BME280;54305;47.950;6.572;2023-01-15T02:53:53;93319.91;;;7.72;100.00
67434;BME280;54305;47.950;6.572;2023-01-15T02:56:21;93320.06;;;7.70;100.00
67434;BME280;54305;47.950;6.572;2023-01-15T02:58:48;93284.13;;;7.67;100.00
67434;BME280;54305;47.950;6.572;2023-01-15T03:01:28;93314.75;;;7.64;100.00
67434;BME280;54305;47.950;6.572;2023-01-15T03:04:03;93317.50;;;7.62;100.00
67434;BME280;54305;47.950;6.572;2023-01-15T03:09:12;93307.44;;;7.67;100.00
67434;BME280;54305;47.950;6.572;2023-01-15T03:11:42;93288.22;;;7.62;100.00
67434;BME280;54305;47.950;6.572;2023-01-15T03:14:13;93281.22;;;7.62;100.00
67434;BME280;54305;47.950;6.572;2023-01-15T03:16:43;93293.56;;;7.60;100.00
67434;BME280;54305;47.950;6.572;2023-01-15T03:24:06;93318.28;;;7.71;100.00
67434;BME280;54305;47.950;6.572;2023-01-15T03:26:34;93286.53;;;7.69;100.00
67434;BME280;54305;47.950;6.572;2023-01-15T03:28:59;93280.06;;;7.65;100.00
67434;BME280;54305;47.950;6.572;2023-01-15T03:31:27;93290.81;;;7.62;100.00
67434;BME280;54305;47.950;6.572;2023-01-15T03:33:53;93308.75;;;7.63;100.00
67434;BME280;54305;47.950;6.572;2023-01-15T03:36:18;93285.63;;;7.62;100.00
67434;BME280;54305;47.950;6.572;2023-01-15T03:38:43;93280.44;;;7.62;100.00
67434;BME280;54305;47.950;6.572;2023-01-15T03:41:33;93280.44;;;7.62;100.00
67434;BME280;54305;47.950;6.572;2023-01-15T03:49:17;93285.13;;;7.58;100.00
67434;BME280;54305;47.950;6.572;2023-01-15T03:54:25;93276.88;;;7.63;100.00
67434;BME280;54305;47.950;6.572;2023-01-15T03:57:02;93283.94;;;7.69;100.00
67434;BME280;54305;47.950;6.572;2023-01-15T03:59:38;93271.00;;;7.69;100.00
67434;BME280;54305;47.950;6.572;2023-01-15T04:02:08;93277.78;;;7.70;100.00
67434;BME280;54305;47.950;6.572;2023-01-15T04:04:35;93272.59;;;7.70;100.00
67434;BME280;54305;47.950;6.572;2023-01-15T04:07:02;93269.06;;;7.71;100.00
67434;BME280;54305;47.950;6.572;2023-01-15T04:09:27;93258.69;;;7.71;100.00
67434;BME280;54305;47.950;6.572;2023-01-15T04:11:53;93287.81;;;7.73;100.00
67434;BME280;54305;47.950;6.572;2023-01-15T04:14:22;93291.41;;;7.72;100.00
67434;BME280;54305;47.950;6.572;2023-01-15T04:16:47;93284.59;;;7.71;100.00
67434;BME280;54305;47.950;6.572;2023-01-15T04:19:12;93293.69;;;7.67;100.00
67434;BME280;54305;47.950;6.572;2023-01-15T04:21:37;93294.34;;;7.61;100.00
67434;BME280;54305;47.950;6.572;2023-01-15T04:24:03;93308.63;;;7.57;100.00
67434;BME280;54305;47.950;6.572;2023-01-15T04:26:28;93310.63;;;7.47;100.00
67434;BME280;54305;47.950;6.572;2023-01-15T04:28:53;93320.69;;;7.26;100.00
67434;BME280;54305;47.950;6.572;2023-01-15T04:31:19;93331.09;;;7.02;100.00
67434;BME280;54305;47.950;6.572;2023-01-15T04:33:44;93349.25;;;6.78;100.00
67434;BME280;54305;47.950;6.572;2023-01-15T04:36:09;93356.38;;;6.52;100.00
67434;BME280;54305;47.950;6.572;2023-01-15T04:38:35;93340.69;;;6.45;100.00
67434;BME280;54305;47.950;6.572;2023-01-15T04:41:01;93345.50;;;6.32;100.00
67434;BME280;54305;47.950;6.572;2023-01-15T04:43:45;93337.94;;;6.31;100.00
67434;BME280;54305;47.950;6.572;2023-01-15T04:46:29;93331.44;;;6.19;100.00
67434;BME280;54305;47.950;6.572;2023-01-15T04:48:54;93350.00;;;6.06;100.00
67434;BME280;54305;47.950;6.572;2023-01-15T04:51:20;93349.19;;;6.06;100.00
67434;BME280;54305;47.950;6.572;2023-01-15T04:53:45;93343.03;;;5.99;100.00
67434;BME280;54305;47.950;6.572;2023-01-15T04:56:10;93343.97;;;5.90;100.00
67434;BME280;54305;47.950;6.572;2023-01-15T04:58:35;93347.88;;;5.94;100.00
67434;BME280;54305;47.950;6.572;2023-01-15T05:01:02;93357.97;;;5.79;100.00
67434;BME280;54305;47.950;6.572;2023-01-15T05:03:29;93366.03;;;5.76;100.00
67434;BME280;54305;47.950;6.572;2023-01-15T05:05:54;93373.59;;;5.70;100.00
67434;BME280;54305;47.950;6.572;2023-01-15T05:08:20;93371.13;;;5.27;100.00
67434;BME280;54305;47.950;6.572;2023-01-15T05:10:45;93377.16;;;5.10;100.00
67434;BME280;54305;47.950;6.572;2023-01-15T05:13:11;93373.09;;;5.07;100.00
67434;BME280;54305;47.950;6.572;2023-01-15T05:15:36;93374.97;;;4.97;100.00
67434;BME280;54305;47.950;6.572;2023-01-15T05:18:04;93369.63;;;4.91;100.00
67434;BME280;54305;47.950;6.572;2023-01-15T05:20:29;93374.03;;;4.81;100.00
67434;BME280;54305;47.950;6.572;2023-01-15T05:22:55;93388.22;;;4.77;100.00
67434;BME280;54305;47.950;6.572;2023-01-15T05:25:20;93391.22;;;4.72;100.00
67434;BME280;54305;47.950;6.572;2023-01-15T05:27:45;93396.50;;;4.63;100.00
67434;BME280;54305;47.950;6.572;2023-01-15T05:30:11;93399.28;;;4.52;100.00
67434;BME280;54305;47.950;6.572;2023-01-15T05:32:36;93405.63;;;4.40;100.00
67434;BME280;54305;47.950;6.572;2023-01-15T05:35:02;93412.72;;;4.38;100.00
67434;BME280;54305;47.950;6.572;2023-01-15T05:37:28;93419.28;;;4.23;100.00
67434;BME280;54305;47.950;6.572;2023-01-15T05:39:53;93430.19;;;4.17;100.00
67434;BME280;54305;47.950;6.572;2023-01-15T05:42:18;93431.28;;;4.14;100.00
67434;BME280;54305;47.950;6.572;2023-01-15T05:44:44;93423.31;;;4.08;100.00
67434;BME280;54305;47.950;6.572;2023-01-15T05:47:09;93437.31;;;4.05;100.00
67434;BME280;54305;47.950;6.572;2023-01-15T05:49:34;93448.72;;;4.03;100.00
67434;BME280;54305;47.950;6.572;2023-01-15T05:52:00;93448.81;;;3.84;100.00
67434;BME280;54305;47.950;6.572;2023-01-15T05:54:26;93455.97;;;3.90;100.00
67434;BME280;54305;47.950;6.572;2023-01-15T05:56:52;93477.81;;;3.86;100.00
67434;BME280;54305;47.950;6.572;2023-01-15T05:59:18;93496.41;;;3.80;100.00
67434;BME280;54305;47.950;6.572;2023-01-15T06:01:44;93483.03;;;3.67;100.00
67434;BME280;54305;47.950;6.572;2023-01-15T06:04:10;93482.53;;;3.63;100.00
67434;BME280;54305;47.950;6.572;2023-01-15T06:06:38;93489.03;;;3.58;100.00
67434;BME280;54305;47.950;6.572;2023-01-15T06:09:03;93489.03;;;3.58;100.00
67434;BME280;54305;47.950;6.572;2023-01-15T06:11:28;93523.06;;;3.52;100.00
67434;BME280;54305;47.950;6.572;2023-01-15T06:13:54;93507.22;;;3.47;100.00
67434;BME280;54305;47.950;6.572;2023-01-15T06:16:19;93504.50;;;3.48;100.00
67434;BME280;54305;47.950;6.572;2023-01-15T06:18:45;93504.25;;;3.42;100.00
67434;BME280;54305;47.950;6.572;2023-01-15T06:21:10;93499.94;;;3.33;100.00
67434;BME280;54305;47.950;6.572;2023-01-15T06:23:36;93513.75;;;3.32;100.00
67434;BME280;54305;47.950;6.572;2023-01-15T06:26:03;93502.25;;;3.26;100.00
67434;BME280;54305;47.950;6.572;2023-01-15T06:28:29;93495.44;;;3.35;100.00
67434;BME280;54305;47.950;6.572;2023-01-15T06:30:54;93492.63;;;3.28;100.00
67434;BME280;54305;47.950;6.572;2023-01-15T06:33:20;93502.13;;;3.18;100.00
67434;BME280;54305;47.950;6.572;2023-01-15T06:35:45;93509.84;;;3.09;100.00
67434;BME280;54305;47.950;6.572;2023-01-15T06:38:10;93526.25;;;2.89;100.00
67434;BME280;54305;47.950;6.572;2023-01-15T06:40:35;93538.97;;;2.81;100.00
67434;BME280;54305;47.950;6.572;2023-01-15T06:43:01;93541.38;;;2.73;100.00
67434;BME280;54305;47.950;6.572;2023-01-15T06:45:45;93547.34;;;2.64;100.00
67434;BME280;54305;47.950;6.572;2023-01-15T06:48:29;93545.16;;;2.59;100.00
67434;BME280;54305;47.950;6.572;2023-01-15T06:50:54;93546.19;;;2.38;100.00
67434;BME280;54305;47.950;6.572;2023-01-15T06:53:19;93541.31;;;2.25;100.00
67434;BME280;54305;47.950;6.572;2023-01-15T06:55:45;93548.81;;;2.08;100.00
67434;BME280;54305;47.950;6.572;2023-01-15T06:58:10;93569.63;;;2.05;100.00
67434;BME280;54305;47.950;6.572;2023-01-15T07:00:35;93571.34;;;1.95;100.00
67434;BME280;54305;47.950;6.572;2023-01-15T07:03:01;93565.25;;;1.96;100.00
67434;BME280;54305;47.950;6.572;2023-01-15T07:05:27;93572.03;;;1.97;100.00
67434;BME280;54305;47.950;6.572;2023-01-15T07:07:52;93584.16;;;1.95;100.00
67434;BME280;54305;47.950;6.572;2023-01-15T07:10:18;93582.59;;;2.03;100.00
67434;BME280;54305;47.950;6.572;2023-01-15T07:12:43;93582.03;;;2.00;100.00
67434;BME280;54305;47.950;6.572;2023-01-15T07:15:09;93578.47;;;1.91;100.00
67434;BME280;54305;47.950;6.572;2023-01-15T07:17:34;93578.91;;;1.96;100.00
67434;BME280;54305;47.950;6.572;2023-01-15T07:19:59;93584.94;;;1.86;100.00
67434;BME280;54305;47.950;6.572;2023-01-15T07:22:25;93594.00;;;1.90;100.00
67434;BME280;54305;47.950;6.572;2023-01-15T07:24:50;93592.72;;;1.75;100.00
67434;BME280;54305;47.950;6.572;2023-01-15T07:27:15;93587.59;;;1.75;100.00
67434;BME280;54305;47.950;6.572;2023-01-15T07:29:40;93595.72;;;1.80;100.00
67434;BME280;54305;47.950;6.572;2023-01-15T07:32:06;93594.63;;;1.73;100.00
67434;BME280;54305;47.950;6.572;2023-01-15T07:34:31;93601.88;;;1.68;100.00
67434;BME280;54305;47.950;6.572;2023-01-15T07:36:56;93606.81;;;1.80;100.00
67434;BME280;54305;47.950;6.572;2023-01-15T07:39:21;93613.38;;;1.73;100.00
67434;BME280;54305;47.950;6.572;2023-01-15T07:41:47;93615.19;;;1.82;100.00
67434;BME280;54305;47.950;6.572;2023-01-15T07:44:30;93619.75;;;1.79;100.00
67434;BME280;54305;47.950;6.572;2023-01-15T07:47:16;93629.78;;;1.82;100.00
67434;BME280;54305;47.950;6.572;2023-01-15T07:50:01;93636.84;;;1.89;100.00
67434;BME280;54305;47.950;6.572;2023-01-15T07:52:26;93632.28;;;1.93;100.00
67434;BME280;54305;47.950;6.572;2023-01-15T07:54:52;93625.94;;;1.97;100.00
67434;BME280;54305;47.950;6.572;2023-01-15T07:57:18;93630.13;;;1.98;100.00
67434;BME280;54305;47.950;6.572;2023-01-15T07:59:44;93639.56;;;1.97;100.00
67434;BME280;54305;47.950;6.572;2023-01-15T08:02:09;93649.34;;;2.03;100.00
67434;BME280;54305;47.950;6.572;2023-01-15T08:04:34;93656.91;;;2.05;100.00
67434;BME280;54305;47.950;6.572;2023-01-15T08:07:00;93668.84;;;2.06;100.00
67434;BME280;54305;47.950;6.572;2023-01-15T08:09:26;93659.13;;;2.09;100.00
67434;BME280;54305;47.950;6.572;2023-01-15T08:11:51;93670.19;;;2.10;100.00
67434;BME280;54305;47.950;6.572;2023-01-15T08:14:35;93684.78;;;2.09;100.00
67434;BME280;54305;47.950;6.572;2023-01-15T08:17:19;93680.72;;;2.07;100.00
67434;BME280;54305;47.950;6.572;2023-01-15T08:19:44;93692.38;;;2.11;100.00
67434;BME280;54305;47.950;6.572;2023-01-15T08:22:10;93692.66;;;2.17;100.00
67434;BME280;54305;47.950;6.572;2023-01-15T08:24:35;93698.38;;;2.21;100.00
67434;BME280;54305;47.950;6.572;2023-01-15T08:27:00;93694.84;;;2.22;100.00
67434;BME280;54305;47.950;6.572;2023-01-15T08:29:26;93698.38;;;2.21;100.00
67434;BME280;54305;47.950;6.572;2023-01-15T08:31:51;93694.59;;;2.25;100.00
67434;BME280;54305;47.950;6.572;2023-01-15T08:34:16;93714.88;;;2.28;100.00
67434;BME280;54305;47.950;6.572;2023-01-15T08:36:43;93712.13;;;2.20;100.00
67434;BME280;54305;47.950;6.572;2023-01-15T08:39:08;93709.13;;;2.15;100.00
67434;BME280;54305;47.950;6.572;2023-01-15T08:41:33;93722.03;;;2.04;100.00
67434;BME280;54305;47.950;6.572;2023-01-15T08:43:59;93723.84;;;1.92;100.00
67434;BME280;54305;47.950;6.572;2023-01-15T08:46:24;93728.44;;;1.89;100.00
67434;BME280;54305;47.950;6.572;2023-01-15T08:48:49;93733.81;;;1.86;100.00
67434;BME280;54305;47.950;6.572;2023-01-15T08:51:15;93747.53;;;1.96;100.00
67434;BME280;54305;47.950;6.572;2023-01-15T08:53:40;93750.34;;;1.93;100.00
67434;BME280;54305;47.950;6.572;2023-01-15T08:56:13;93753.16;;;1.90;100.00
67434;BME280;54305;47.950;6.572;2023-01-15T08:58:38;93747.34;;;1.88;100.00
67434;BME280;54305;47.950;6.572;2023-01-15T09:01:04;93764.53;;;1.76;100.00
67434;BME280;54305;47.950;6.572;2023-01-15T09:03:30;93768.63;;;1.79;100.00
67434;BME280;54305;47.950;6.572;2023-01-15T09:05:58;93773.06;;;1.77;100.00
67434;BME280;54305;47.950;6.572;2023-01-15T09:08:24;93773.34;;;1.63;100.00
67434;BME280;54305;47.950;6.572;2023-01-15T09:10:50;93791.34;;;1.52;100.00
67434;BME280;54305;47.950;6.572;2023-01-15T09:13:15;93798.13;;;1.53;100.00
67434;BME280;54305;47.950;6.572;2023-01-15T09:15:40;93785.75;;;1.58;100.00
67434;BME280;54305;47.950;6.572;2023-01-15T09:18:06;93794.13;;;1.60;100.00
67434;BME280;54305;47.950;6.572;2023-01-15T09:20:34;93799.47;;;1.57;100.00
67434;BME280;54305;47.950;6.572;2023-01-15T09:22:59;93811.63;;;1.55;100.00
67434;BME280;54305;47.950;6.572;2023-01-15T09:25:25;93799.47;;;1.57;100.00
67434;BME280;54305;47.950;6.572;2023-01-15T09:27:50;93800.53;;;1.54;100.00
67434;BME280;54305;47.950;6.572;2023-01-15T09:30:19;93799.94;;;1.62;100.00
67434;BME280;54305;47.950;6.572;2023-01-15T09:32:44;93813.69;;;1.61;100.00
67434;BME280;54305;47.950;6.572;2023-01-15T09:35:10;93806.00;;;1.61;100.00
67434;BME280;54305;47.950;6.572;2023-01-15T09:37:35;93804.38;;;1.60;100.00
67434;BME280;54305;47.950;6.572;2023-01-15T09:40:00;93809.28;;;1.63;100.00
67434;BME280;54305;47.950;6.572;2023-01-15T09:45:19;93819.28;;;1.66;100.00
67434;BME280;54305;47.950;6.572;2023-01-15T09:50:29;93831.44;;;1.64;100.00
67434;BME280;54305;47.950;6.572;2023-01-15T09:55:31;93842.97;;;1.58;100.00
67434;BME280;54305;47.950;6.572;2023-01-15T09:57:58;93843.81;;;1.59;100.00
67434;BME280;54305;47.950;6.572;2023-01-15T10:00:26;93837.28;;;1.55;100.00
67434;BME280;54305;47.950;6.572;2023-01-15T10:02:53;93842.19;;;1.58;100.00
67434;BME280;54305;47.950;6.572;2023-01-15T10:10:31;93844.94;;;1.66;100.00
67434;BME280;54305;47.950;6.572;2023-01-15T10:13:05;93868.97;;;1.65;100.00
67434;BME280;54305;47.950;6.572;2023-01-15T10:15:37;93853.59;;;1.65;100.00
67434;BME280;54305;47.950;6.572;2023-01-15T10:18:05;93853.09;;;1.71;100.00
67434;BME280;54305;47.950;6.572;2023-01-15T10:23:05;93849.91;;;1.78;100.00
67434;BME280;54305;47.950;6.572;2023-01-15T10:25:44;93859.84;;;1.83;100.00
67434;BME280;54305;47.950;6.572;2023-01-15T10:28:14;93857.00;;;1.86;100.00
67434;BME280;54305;47.950;6.572;2023-01-15T10:30:44;93859.22;;;1.90;100.00
67434;BME280;54305;47.950;6.572;2023-01-15T10:33:21;93858.66;;;1.87;100.00
67434;BME280;54305;47.950;6.572;2023-01-15T10:35:52;93849.09;;;1.89;100.00
67434;BME280;54305;47.950;6.572;2023-01-15T10:45:46;93850.72;;;1.90;100.00
67434;BME280;54305;47.950;6.572;2023-01-15T10:48:14;93868.31;;;1.94;100.00
67434;BME280;54305;47.950;6.572;2023-01-15T10:50:43;93869.25;;;1.93;100.00
67434;BME280;54305;47.950;6.572;2023-01-15T10:55:39;93872.56;;;1.73;100.00
67434;BME280;54305;47.950;6.572;2023-01-15T11:00:38;93895.13;;;1.59;100.00
67434;BME280;54305;47.950;6.572;2023-01-15T11:03:04;93891.13;;;1.66;100.00
67434;BME280;54305;47.950;6.572;2023-01-15T11:05:33;93878.53;;;1.74;100.00
67434;BME280;54305;47.950;6.572;2023-01-15T11:07:58;93865.66;;;1.85;100.00
67434;BME280;54305;47.950;6.572;2023-01-15T11:10:24;93881.16;;;1.94;100.00
67434;BME280;54305;47.950;6.572;2023-01-15T11:12:59;93881.16;;;1.94;100.00
67434;BME280;54305;47.950;6.572;2023-01-15T11:15:45;93897.13;;;1.98;100.00
67434;BME280;54305;47.950;6.572;2023-01-15T11:18:32;93889.88;;;2.03;100.00
67434;BME280;54305;47.950;6.572;2023-01-15T11:21:18;93886.94;;;2.07;100.00
67434;BME280;54305;47.950;6.572;2023-01-15T11:23:45;93876.09;;;2.04;100.00
67434;BME280;54305;47.950;6.572;2023-01-15T11:26:17;93874.91;;;2.08;100.00
67434;BME280;54305;47.950;6.572;2023-01-15T11:28:44;93875.88;;;2.07;100.00
67434;BME280;54305;47.950;6.572;2023-01-15T11:31:11;93885.66;;;2.13;100.00
67434;BME280;54305;47.950;6.572;2023-01-15T11:33:36;93878.63;;;2.15;100.00
67434;BME280;54305;47.950;6.572;2023-01-15T11:36:03;93878.88;;;2.12;100.00
67434;BME280;54305;47.950;6.572;2023-01-15T11:38:42;93889.84;;;2.14;100.00
67434;BME280;54305;47.950;6.572;2023-01-15T11:43:42;93882.13;;;2.14;100.00
67434;BME280;54305;47.950;6.572;2023-01-15T11:46:30;93887.84;;;2.17;100.00
67434;BME280;54305;47.950;6.572;2023-01-15T11:49:20;93888.53;;;2.19;100.00
67434;BME280;54305;47.950;6.572;2023-01-15T11:52:12;93881.63;;;2.20;100.00
67434;BME280;54305;47.950;6.572;2023-01-15T11:54:40;93871.34;;;2.20;100.00
67434;BME280;54305;47.950;6.572;2023-01-15T11:57:06;93865.75;;;2.26;100.00
67434;BME280;54305;47.950;6.572;2023-01-15T11:59:31;93891.44;;;2.26;100.00
67434;BME280;54305;47.950;6.572;2023-01-15T12:02:00;93867.38;;;2.27;100.00
67434;BME280;54305;47.950;6.572;2023-01-15T12:04:38;93876.03;;;2.26;100.00
67434;BME280;54305;47.950;6.572;2023-01-15T12:07:13;93858.63;;;2.29;100.00
67434;BME280;54305;47.950;6.572;2023-01-15T12:17:38;93885.75;;;2.63;100.00
67434;BME280;54305;47.950;6.572;2023-01-15T12:26:08;93863.03;;;2.59;100.00
67434;BME280;54305;47.950;6.572;2023-01-15T12:28:44;93852.16;;;2.55;100.00
67434;BME280;54305;47.950;6.572;2023-01-15T12:31:13;93865.75;;;2.67;100.00
67434;BME280;54305;47.950;6.572;2023-01-15T12:33:47;93833.91;;;2.79;100.00
67434;BME280;54305;47.950;6.572;2023-01-15T12:39:02;93847.00;;;2.76;100.00
67434;BME280;54305;47.950;6.572;2023-01-15T12:44:15;93855.56;;;2.56;100.00
67434;BME280;54305;47.950;6.572;2023-01-15T12:47:01;93847.84;;;2.56;100.00
67434;BME280;54305;47.950;6.572;2023-01-15T12:52:13;93844.09;;;2.60;100.00
67434;BME280;54305;47.950;6.572;2023-01-15T12:57:29;93846.78;;;2.58;100.00
67434;BME280;54305;47.950;6.572;2023-01-15T13:10:16;93849.16;;;3.01;100.00
67434;BME280;54305;47.950;6.572;2023-01-15T13:12:43;93840.34;;;2.94;100.00
67434;BME280;54305;47.950;6.572;2023-01-15T13:15:15;93851.81;;;2.90;100.00
67434;BME280;54305;47.950;6.572;2023-01-15T13:32:44;93864.25;;;2.85;100.00
67434;BME280;54305;47.950;6.572;2023-01-15T13:37:44;93854.06;;;3.04;100.00
67434;BME280;54305;47.950;6.572;2023-01-15T13:40:12;93873.03;;;3.03;100.00
67434;BME280;54305;47.950;6.572;2023-01-15T13:42:44;93870.28;;;3.04;100.00
67434;BME280;54305;47.950;6.572;2023-01-15T13:47:38;93866.75;;;2.96;100.00
67434;BME280;54305;47.950;6.572;2023-01-15T13:50:13;93874.34;;;2.97;100.00
67434;BME280;54305;47.950;6.572;2023-01-15T13:52:40;93864.00;;;2.88;100.00
67434;BME280;54305;47.950;6.572;2023-01-15T13:55:18;93856.44;;;2.96;100.00
67434;BME280;54305;47.950;6.572;2023-01-15T13:57:44;93869.84;;;3.20;100.00
67434;BME280;54305;47.950;6.572;2023-01-15T14:02:54;93874.81;;;3.42;100.00
67434;BME280;54305;47.950;6.572;2023-01-15T14:07:48;93880.97;;;3.30;100.00
67434;BME280;54305;47.950;6.572;2023-01-15T14:12:48;93886.47;;;3.16;100.00
67434;BME280;54305;47.950;6.572;2023-01-15T14:28:12;93892.53;;;3.05;100.00
67434;BME280;54305;47.950;6.572;2023-01-15T14:35:48;93900.34;;;3.04;100.00
67434;BME280;54305;47.950;6.572;2023-01-15T14:38:17;93900.66;;;3.10;100.00
67434;BME280;54305;47.950;6.572;2023-01-15T14:40:54;93897.69;;;3.15;100.00
67434;BME280;54305;47.950;6.572;2023-01-15T14:43:23;93894.69;;;3.10;100.00
67434;BME280;54305;47.950;6.572;2023-01-15T14:45:50;93893.59;;;3.03;100.00
67434;BME280;54305;47.950;6.572;2023-01-15T14:50:42;93908.41;;;2.90;100.00
67434;BME280;54305;47.950;6.572;2023-01-15T14:55:55;93910.72;;;2.93;100.00
67434;BME280;54305;47.950;6.572;2023-01-15T15:03:56;93910.56;;;2.94;100.00
67434;BME280;54305;47.950;6.572;2023-01-15T15:06:23;93899.72;;;2.91;100.00
67434;BME280;54305;47.950;6.572;2023-01-15T15:08:49;93900.00;;;2.88;100.00
67434;BME280;54305;47.950;6.572;2023-01-15T15:11:32;93910.28;;;2.88;100.00
67434;BME280;54305;47.950;6.572;2023-01-15T15:14:17;93908.41;;;2.90;100.00
67434;BME280;54305;47.950;6.572;2023-01-15T15:16:45;93903.00;;;2.93;100.00
67434;BME280;54305;47.950;6.572;2023-01-15T15:22:07;93903.06;;;2.82;100.00
67434;BME280;54305;47.950;6.572;2023-01-15T15:24:35;93903.06;;;2.82;100.00
67434;BME280;54305;47.950;6.572;2023-01-15T15:27:07;93904.84;;;2.81;100.00
67434;BME280;54305;47.950;6.572;2023-01-15T15:29:33;93901.31;;;2.82;100.00
67434;BME280;54305;47.950;6.572;2023-01-15T15:31:58;93897.91;;;2.82;100.00
67434;BME280;54305;47.950;6.572;2023-01-15T15:36:50;93885.34;;;2.79;100.00
67434;BME280;54305;47.950;6.572;2023-01-15T15:39:21;93882.63;;;2.80;100.00